Time;durP1;ratioP1;P1;durP2;ratioP2;P2;SDS_P1;SDS_P2;PMS_P1;PMS_P2;Temp;Humidity;BMP_temperature;BMP_pressure;BME280_temperature;BME280_humidity;BME280_pressure;Samples;Min_cycle;Max_cycle;Signal;HPM_P1;HPM_P2
2023/07/26 00:01:56;;;;;;;10.73;9.17;;;15.80;94.20;;;;;;5040553;28;20513;-75
2023/07/26 00:04:23;;;;;;;12.87;11.37;;;15.70;94.20;;;;;;5039924;28;20566;-75
2023/07/26 00:06:51;;;;;;;9.23;8.33;;;15.80;94.10;;;;;;5039725;28;20509;-74
2023/07/26 00:09:18;;;;;;;9.50;8.80;;;15.70;94.20;;;;;;5040019;28;20517;-76
2023/07/26 00:11:45;;;;;;;9.53;8.60;;;15.60;94.50;;;;;;5045011;28;20500;-74
2023/07/26 00:14:13;;;;;;;9.30;8.37;;;15.60;94.20;;;;;;5044072;28;20715;-76
2023/07/26 00:16:41;;;;;;;8.67;7.60;;;15.50;94.20;;;;;;5044546;28;20471;-76
2023/07/26 00:19:08;;;;;;;7.83;7.00;;;15.40;94.00;;;;;;5043611;28;20442;-76
2023/07/26 00:21:35;;;;;;;8.63;7.73;;;15.50;93.90;;;;;;5050713;28;20529;-75
2023/07/26 00:24:02;;;;;;;7.73;7.13;;;15.40;94.20;;;;;;5057546;28;20465;-75
2023/07/26 00:26:30;;;;;;;9.30;8.40;;;15.40;94.00;;;;;;5052528;28;20484;-73
2023/07/26 00:28:57;;;;;;;8.70;7.83;;;15.40;94.20;;;;;;5026736;28;20784;-74
2023/07/26 00:31:24;;;;;;;8.50;7.70;;;15.30;94.10;;;;;;5045555;28;20536;-75
2023/07/26 00:33:52;;;;;;;10.20;7.10;;;15.30;93.70;;;;;;5043674;28;20437;-76
2023/07/26 00:36:19;;;;;;;7.57;6.87;;;15.30;93.60;;;;;;5025931;28;20461;-77
2023/07/26 00:38:46;;;;;;;7.90;6.30;;;15.10;93.60;;;;;;5043674;28;20504;-78
2023/07/26 00:41:13;;;;;;;6.80;6.17;;;15.10;93.90;;;;;;5042264;28;20488;-76
2023/07/26 00:43:40;;;;;;;6.93;6.23;;;15.10;93.60;;;;;;5043506;28;20464;-74
2023/07/26 00:46:08;;;;;;;6.80;6.00;;;15.10;93.40;;;;;;5044032;28;20624;-75
2023/07/26 00:48:36;;;;;;;5.80;5.30;;;15.10;93.00;;;;;;5027392;28;20758;-73
2023/07/26 00:51:04;;;;;;;7.00;6.40;;;15.00;93.40;;;;;;5043286;28;20677;-76
2023/07/26 00:53:32;;;;;;;7.83;6.13;;;15.10;93.10;;;;;;5025311;28;20509;-75
2023/07/26 00:55:59;;;;;;;7.20;6.37;;;15.00;93.50;;;;;;5042564;28;20797;-77
2023/07/26 00:58:26;;;;;;;7.47;6.67;;;15.00;93.40;;;;;;5041106;28;20782;-74
2023/07/26 01:00:53;;;;;;;6.77;5.40;;;15.10;93.70;;;;;;5042400;28;20728;-73
2023/07/26 01:03:21;;;;;;;9.07;5.80;;;15.00;93.60;;;;;;5042061;28;20457;-73
2023/07/26 01:05:51;;;;;;;6.67;5.80;;;15.10;93.50;;;;;;5042348;28;20797;-75
2023/07/26 01:08:34;;;;;;;6.13;5.53;;;15.00;93.40;;;;;;5043664;28;20623;-75
2023/07/26 01:11:27;;;;;;;5.43;4.93;;;15.00;93.10;;;;;;5042560;28;20469;-74
2023/07/26 01:14:08;;;;;;;5.90;5.40;;;14.90;93.30;;;;;;5034654;28;20412;-75
2023/07/26 01:16:36;;;;;;;5.23;4.83;;;14.90;93.60;;;;;;5042089;28;20461;-73
2023/07/26 01:19:03;;;;;;;6.80;6.10;;;14.90;93.40;;;;;;5042172;28;20434;-75
2023/07/26 01:21:32;;;;;;;6.23;5.80;;;14.90;93.20;;;;;;5042087;28;20441;-75
2023/07/26 01:23:59;;;;;;;6.90;5.37;;;14.80;93.10;;;;;;5043071;28;20755;-75
2023/07/26 01:26:27;;;;;;;7.47;5.30;;;14.80;93.50;;;;;;5043539;28;20416;-74
2023/07/26 01:28:54;;;;;;;4.90;4.60;;;14.80;93.60;;;;;;5042560;28;20819;-75
2023/07/26 01:31:23;;;;;;;9.03;6.33;;;14.80;93.60;;;;;;5024993;28;20507;-77
2023/07/26 01:33:52;;;;;;;7.97;5.20;;;14.70;94.00;;;;;;5025422;28;20442;-75
2023/07/26 01:36:22;;;;;;;6.20;5.60;;;14.60;93.70;;;;;;5024772;28;20409;-75
2023/07/26 01:38:50;;;;;;;7.80;6.10;;;14.60;94.00;;;;;;5042305;28;20465;-75
2023/07/26 01:41:18;;;;;;;6.70;6.20;;;14.60;94.40;;;;;;5041932;28;20501;-75
2023/07/26 01:43:45;;;;;;;6.73;6.23;;;14.60;94.30;;;;;;5042086;28;20456;-75
2023/07/26 01:46:13;;;;;;;6.77;6.10;;;14.60;94.70;;;;;;5040763;28;20512;-73
2023/07/26 01:48:41;;;;;;;7.40;6.80;;;14.60;94.60;;;;;;5042252;28;20469;-74
2023/07/26 01:51:08;;;;;;;7.20;6.60;;;14.60;94.70;;;;;;5042444;28;20438;-75
2023/07/26 01:53:35;;;;;;;6.65;6.05;;;14.60;94.80;;;;;;4990732;28;1471373;-75
2023/07/26 01:56:02;;;;;;;8.27;6.03;;;14.60;94.50;;;;;;5043253;28;20200;-73
2023/07/26 01:58:29;;;;;;;7.83;6.63;;;14.60;94.70;;;;;;5041952;28;20430;-75
2023/07/26 02:00:57;;;;;;;6.53;5.93;;;14.60;95.00;;;;;;5042465;28;20500;-74
2023/07/26 02:03:24;;;;;;;7.10;6.40;;;14.60;94.70;;;;;;5042628;28;20441;-75
2023/07/26 02:05:51;;;;;;;7.10;6.60;;;14.70;94.50;;;;;;5042217;28;20461;-74
2023/07/26 02:08:18;;;;;;;6.20;5.70;;;14.60;94.30;;;;;;5042815;28;20676;-76
2023/07/26 02:10:45;;;;;;;7.97;7.30;;;14.60;94.60;;;;;;5043020;28;20766;-73
2023/07/26 02:13:12;;;;;;;7.83;7.10;;;14.60;94.70;;;;;;5041952;28;20513;-77
2023/07/26 02:15:40;;;;;;;7.53;6.40;;;14.60;94.60;;;;;;5041948;28;20468;-74
2023/07/26 02:18:07;;;;;;;7.93;7.30;;;14.50;94.60;;;;;;5042314;28;20444;-75
2023/07/26 02:20:34;;;;;;;7.83;7.13;;;14.50;94.70;;;;;;5040759;28;20513;-74
2023/07/26 02:23:02;;;;;;;7.83;7.13;;;14.50;94.80;;;;;;5041688;28;20941;-75
2023/07/26 02:25:29;;;;;;;7.50;6.90;;;14.40;95.10;;;;;;5041558;28;20504;-77
2023/07/26 02:27:56;;;;;;;9.00;7.60;;;14.40;95.30;;;;;;5041657;28;20786;-76
2023/07/26 02:30:23;;;;;;;9.40;7.60;;;14.40;95.50;;;;;;5041251;28;20433;-74
2023/07/26 02:32:50;;;;;;;9.77;8.37;;;14.30;95.50;;;;;;5023762;28;20509;-75
2023/07/26 02:35:17;;;;;;;10.20;8.30;;;14.20;95.70;;;;;;5041567;28;20500;-76
2023/07/26 02:37:44;;;;;;;9.23;8.43;;;14.20;96.00;;;;;;5023768;28;20436;-74
2023/07/26 02:40:11;;;;;;;8.90;8.20;;;14.20;96.10;;;;;;5041277;28;20646;-76
2023/07/26 02:42:38;;;;;;;10.85;9.85;;;14.10;96.30;;;;;;5023531;28;20840;-74
2023/07/26 02:45:06;;;;;;;10.87;9.90;;;14.20;96.40;;;;;;5042580;28;20222;-75
2023/07/26 02:47:33;;;;;;;13.53;12.13;;;14.20;96.40;;;;;;5041469;28;20591;-77
2023/07/26 02:50:03;;;;;;;12.00;10.90;;;14.30;96.70;;;;;;5041324;28;20468;-73
2023/07/26 02:52:31;;;;;;;11.83;10.83;;;14.20;96.40;;;;;;5041478;28;20647;-75
2023/07/26 02:54:59;;;;;;;12.27;11.07;;;14.20;96.60;;;;;;5041303;28;20437;-75
2023/07/26 02:57:26;;;;;;;13.70;12.50;;;14.20;96.60;;;;;;5041188;28;20432;-74
2023/07/26 02:59:53;;;;;;;13.57;12.37;;;14.10;96.60;;;;;;5040949;28;20441;-75
2023/07/26 03:02:20;;;;;;;14.30;12.60;;;14.20;96.60;;;;;;5041033;28;20580;-75
2023/07/26 03:04:47;;;;;;;14.20;13.00;;;14.30;96.60;;;;;;5040848;28;20212;-75
2023/07/26 03:07:14;;;;;;;16.17;14.48;;;14.20;96.50;;;;;;5040748;28;20433;-76
2023/07/26 03:09:41;;;;;;;14.13;12.63;;;14.20;96.70;;;;;;5041079;28;20469;-76
2023/07/26 03:12:08;;;;;;;14.13;12.90;;;14.20;96.70;;;;;;5041212;28;20438;-76
2023/07/26 03:14:40;;;;;;;16.50;14.63;;;14.20;96.70;;;;;;5040709;28;20437;-78
2023/07/26 03:17:09;;;;;;;15.20;13.43;;;14.10;96.80;;;;;;5040734;28;20766;-76
2023/07/26 03:19:48;;;;;;;14.60;13.37;;;14.10;97.20;;;;;;5040627;28;20484;-77
2023/07/26 03:22:15;;;;;;;15.65;14.35;;;14.10;97.30;;;;;;5040655;28;20809;-79
2023/07/26 03:24:41;;;;;;;15.88;13.55;;;14.10;97.20;;;;;;5040654;28;20287;-78
2023/07/26 03:27:09;;;;;;;15.50;14.07;;;14.20;97.10;;;;;;5040897;28;20251;-76
2023/07/26 03:29:36;;;;;;;15.75;14.25;;;14.10;96.90;;;;;;5042093;28;20465;-78
2023/07/26 03:32:03;;;;;;;15.20;13.70;;;14.10;97.10;;;;;;5041553;28;20508;-77
2023/07/26 03:34:30;;;;;;;16.85;15.23;;;14.10;97.20;;;;;;5041632;28;20434;-79
2023/07/26 03:36:57;;;;;;;15.43;13.68;;;14.10;97.30;;;;;;5041160;28;20267;-80
2023/07/26 03:39:25;;;;;;;17.83;14.32;;;14.10;97.30;;;;;;5041786;28;20276;-80
2023/07/26 03:41:52;;;;;;;15.17;13.57;;;14.10;97.40;;;;;;5041803;28;20239;-77
2023/07/26 03:44:19;;;;;;;15.73;14.33;;;14.10;97.30;;;;;;5049056;28;20456;-78
2023/07/26 03:46:51;;;;;;;14.37;12.93;;;14.10;97.40;;;;;;5058762;28;20839;-78
2023/07/26 03:49:17;;;;;;;13.77;12.33;;;14.10;97.30;;;;;;5055106;28;20786;-78
2023/07/26 03:51:45;;;;;;;15.80;14.30;;;14.20;97.40;;;;;;5027687;28;20449;-80
2023/07/26 03:54:11;;;;;;;16.27;14.77;;;14.20;97.40;;;;;;5045220;28;20677;-80
2023/07/26 03:56:39;;;;;;;16.37;14.83;;;14.30;97.40;;;;;;5044816;28;20618;-78
2023/07/26 03:59:06;;;;;;;15.97;14.47;;;14.30;97.50;;;;;;5044685;28;20473;-78
2023/07/26 04:01:33;;;;;;;15.17;13.57;;;14.10;97.20;;;;;;5044488;28;20453;-77
2023/07/26 04:04:00;;;;;;;16.80;15.40;;;14.10;97.30;;;;;;5046802;28;20712;-78
2023/07/26 04:06:29;;;;;;;15.37;14.07;;;14.20;97.30;;;;;;5027871;28;20493;-77
2023/07/26 04:08:56;;;;;;;15.80;14.53;;;14.20;97.30;;;;;;5045137;28;20444;-78
2023/07/26 04:11:24;;;;;;;17.07;15.70;;;14.10;97.00;;;;;;5045345;28;20445;-83
2023/07/26 04:13:50;;;;;;;17.87;16.23;;;14.20;97.40;;;;;;5045792;28;20513;-77
2023/07/26 04:16:19;;;;;;;16.70;15.10;;;14.20;97.50;;;;;;5044953;28;20774;-76
2023/07/26 04:18:47;;;;;;;16.40;14.30;;;14.20;97.30;;;;;;5046040;28;20440;-78
2023/07/26 04:21:18;;;;;;;16.90;15.03;;;14.20;97.80;;;;;;5027732;28;20767;-77
2023/07/26 04:23:46;;;;;;;17.80;16.30;;;14.20;97.80;;;;;;5045129;28;20841;-80
2023/07/26 04:26:13;;;;;;;18.00;14.93;;;14.20;97.50;;;;;;5027068;28;20758;-79
2023/07/26 04:28:40;;;;;;;16.50;15.00;;;14.20;97.60;;;;;;5044872;28;20501;-76
2023/07/26 04:31:08;;;;;;;16.00;14.80;;;14.10;97.90;;;;;;5026833;28;20769;-76
2023/07/26 04:33:34;;;;;;;17.08;15.60;;;14.10;97.70;;;;;;5044363;28;20573;-80
2023/07/26 04:36:05;;;;;;;16.00;14.60;;;14.20;97.80;;;;;;5043494;28;20247;-82
2023/07/26 04:38:34;;;;;;;15.03;13.83;;;14.20;97.60;;;;;;5026861;28;20441;-77
2023/07/26 04:41:04;;;;;;;16.77;14.63;;;14.20;97.60;;;;;;5026852;28;20469;-80
2023/07/26 04:43:31;;;;;;;15.80;14.50;;;14.10;97.80;;;;;;5026997;28;20477;-77
2023/07/26 04:45:58;;;;;;;18.42;16.45;;;14.10;97.70;;;;;;5043987;28;20446;-81
2023/07/26 04:48:25;;;;;;;16.20;14.70;;;14.20;97.60;;;;;;5045132;28;20296;-79
2023/07/26 04:50:52;;;;;;;17.67;15.33;;;14.20;97.60;;;;;;5043813;28;20452;-78
2023/07/26 04:53:19;;;;;;;17.70;15.10;;;14.20;97.60;;;;;;5044089;28;20496;-76
2023/07/26 04:55:50;;;;;;;17.30;15.80;;;14.20;97.60;;;;;;5043994;28;20484;-77
2023/07/26 04:58:18;;;;;;;17.43;15.80;;;14.20;97.50;;;;;;5044182;28;20243;-78
2023/07/26 05:00:45;;;;;;;16.05;14.75;;;14.20;97.70;;;;;;5043931;28;20446;-76
2023/07/26 05:03:13;;;;;;;15.97;14.57;;;14.20;97.60;;;;;;5043856;28;20267;-76
2023/07/26 05:05:40;;;;;;;18.75;17.15;;;14.20;97.60;;;;;;5044460;28;20444;-78
2023/07/26 05:08:08;;;;;;;17.95;16.15;;;14.10;97.90;;;;;;5043523;28;20223;-77
2023/07/26 05:10:35;;;;;;;16.90;15.35;;;14.10;97.70;;;;;;5043622;28;20385;-77
2023/07/26 05:13:02;;;;;;;18.13;16.47;;;14.20;97.40;;;;;;5043376;28;20458;-77
2023/07/26 05:15:30;;;;;;;17.40;15.80;;;14.20;97.70;;;;;;5043307;28;20469;-77
2023/07/26 05:17:57;;;;;;;15.87;14.37;;;14.20;97.70;;;;;;5044796;28;20792;-76
2023/07/26 05:20:25;;;;;;;18.17;16.47;;;14.10;97.60;;;;;;5043338;28;20761;-76
2023/07/26 05:22:53;;;;;;;18.40;16.67;;;14.20;97.50;;;;;;5045220;28;20465;-76
2023/07/26 05:25:20;;;;;;;19.25;17.35;;;14.20;97.40;;;;;;5044756;28;20627;-76
2023/07/26 05:27:48;;;;;;;17.67;16.07;;;14.20;97.50;;;;;;5044198;28;20215;-83
2023/07/26 05:30:20;;;;;;;18.00;16.50;;;14.20;97.30;;;;;;5044442;28;20729;-81
2023/07/26 05:32:46;;;;;;;17.57;16.07;;;14.20;97.70;;;;;;5044795;28;20508;-76
2023/07/26 05:35:14;;;;;;;18.60;16.83;;;14.30;97.60;;;;;;5044341;28;20472;-76
2023/07/26 05:37:41;;;;;;;18.77;17.07;;;14.20;97.60;;;;;;5044243;28;20470;-79
2023/07/26 05:40:08;;;;;;;16.03;14.77;;;14.20;97.70;;;;;;5044408;28;20472;-78
2023/07/26 05:42:36;;;;;;;19.27;17.37;;;14.30;97.70;;;;;;5042921;28;20481;-79
2023/07/26 05:45:03;;;;;;;16.30;14.80;;;14.30;97.70;;;;;;5044208;28;20468;-77
2023/07/26 05:47:33;;;;;;;16.30;14.70;;;14.30;97.40;;;;;;5044028;28;20488;-76
2023/07/26 05:50:00;;;;;;;16.13;14.93;;;14.30;97.50;;;;;;5043557;28;20434;-77
2023/07/26 05:52:27;;;;;;;16.60;15.10;;;14.30;97.60;;;;;;5042885;28;20450;-76
2023/07/26 05:54:55;;;;;;;16.63;15.30;;;14.40;97.60;;;;;;5025771;28;20382;-79
2023/07/26 05:57:22;;;;;;;15.07;13.88;;;14.40;97.30;;;;;;5042595;28;20448;-79
2023/07/26 05:59:49;;;;;;;16.53;15.23;;;14.40;97.40;;;;;;5043197;28;20288;-77
2023/07/26 06:02:16;;;;;;;15.00;13.50;;;14.40;97.60;;;;;;5042458;28;20481;-80
2023/07/26 06:04:53;;;;;;;14.23;12.73;;;14.40;97.30;;;;;;5025370;28;20445;-81
2023/07/26 06:07:23;;;;;;;15.57;13.93;;;14.40;97.50;;;;;;5024700;28;20448;-78
2023/07/26 06:09:50;;;;;;;17.67;15.97;;;14.40;97.70;;;;;;5026256;28;20461;-75
2023/07/26 06:12:18;;;;;;;16.07;14.47;;;14.40;97.90;;;;;;5025685;28;20572;-77
2023/07/26 06:14:46;;;;;;;14.48;13.25;;;14.40;97.70;;;;;;5042963;28;20442;-77
2023/07/26 06:17:13;;;;;;;14.20;12.80;;;14.50;97.50;;;;;;5043610;28;20208;-77
2023/07/26 06:19:41;;;;;;;15.60;14.10;;;14.50;97.40;;;;;;5042043;28;20438;-78
2023/07/26 06:22:09;;;;;;;12.83;11.93;;;14.30;97.20;;;;;;5026450;28;20489;-81
2023/07/26 06:24:37;;;;;;;12.93;12.03;;;14.50;97.50;;;;;;5043763;28;20468;-79
2023/07/26 06:27:04;;;;;;;14.40;12.90;;;14.50;97.60;;;;;;5043172;28;20721;-76
2023/07/26 06:29:33;;;;;;;14.33;13.07;;;14.50;97.00;;;;;;5042646;28;20434;-78
2023/07/26 06:32:00;;;;;;;14.73;13.20;;;14.60;97.30;;;;;;5042825;28;20480;-77
2023/07/26 06:34:27;;;;;;;13.87;12.77;;;14.60;97.40;;;;;;5042147;28;20492;-75
2023/07/26 06:36:54;;;;;;;14.50;13.10;;;14.50;97.50;;;;;;5042198;28;20440;-78
2023/07/26 06:39:26;;;;;;;13.80;12.60;;;14.60;97.50;;;;;;5041940;28;20444;-77
2023/07/26 06:41:54;;;;;;;11.63;10.60;;;14.70;97.20;;;;;;5041498;28;20461;-77
2023/07/26 06:44:21;;;;;;;12.87;11.73;;;14.80;97.00;;;;;;5041349;28;20469;-77
2023/07/26 06:46:48;;;;;;;12.83;11.90;;;14.90;96.80;;;;;;5041521;28;20445;-77
2023/07/26 06:49:15;;;;;;;14.77;13.57;;;14.80;96.90;;;;;;5043244;28;20437;-78
2023/07/26 06:51:42;;;;;;;14.67;13.27;;;14.80;97.20;;;;;;5042656;28;20533;-77
2023/07/26 06:54:09;;;;;;;13.57;12.37;;;14.90;97.00;;;;;;5042433;28;20499;-77
2023/07/26 06:56:37;;;;;;;13.90;12.80;;;14.90;96.80;;;;;;5024937;28;20541;-79
2023/07/26 06:59:11;;;;;;;12.10;11.23;;;14.90;96.90;;;;;;5042388;28;20483;-78
2023/07/26 07:01:38;;;;;;;11.43;10.53;;;14.90;96.60;;;;;;5024714;28;20629;-80
2023/07/26 07:04:06;;;;;;;13.27;11.93;;;14.90;96.40;;;;;;5025136;28;20709;-79
2023/07/26 07:06:41;;;;;;;13.70;12.57;;;14.80;96.50;;;;;;5042405;28;20456;-79
2023/07/26 07:09:09;;;;;;;13.83;12.60;;;14.70;96.90;;;;;;5042044;28;20637;-80
2023/07/26 07:11:36;;;;;;;12.40;11.50;;;14.80;96.80;;;;;;5043304;28;20464;-78
2023/07/26 07:14:03;;;;;;;13.07;11.97;;;14.90;96.30;;;;;;5025691;28;20591;-77
2023/07/26 07:16:31;;;;;;;12.37;11.47;;;14.80;96.40;;;;;;5049863;28;20441;-79
2023/07/26 07:18:58;;;;;;;13.50;12.33;;;14.90;96.70;;;;;;5054283;28;20442;-78
2023/07/26 07:21:25;;;;;;;12.63;11.43;;;14.80;96.50;;;;;;5050941;28;20465;-77
2023/07/26 07:23:52;;;;;;;12.30;11.50;;;14.70;96.90;;;;;;5024372;28;20628;-76
2023/07/26 07:26:19;;;;;;;12.93;11.97;;;14.80;96.60;;;;;;5041763;28;20493;-80
2023/07/26 07:28:46;;;;;;;11.23;10.37;;;14.90;96.90;;;;;;5040961;28;20635;-75
2023/07/26 07:31:13;;;;;;;12.27;11.27;;;14.80;96.30;;;;;;5041306;28;20703;-76
2023/07/26 07:33:40;;;;;;;12.50;11.50;;;14.80;96.60;;;;;;5042177;28;20446;-77
2023/07/26 07:36:09;;;;;;;13.47;12.37;;;14.80;96.80;;;;;;5041054;28;20600;-79
2023/07/26 07:38:36;;;;;;;13.50;12.30;;;14.80;97.20;;;;;;5041084;28;20782;-78
2023/07/26 07:41:04;;;;;;;12.90;11.90;;;14.90;96.50;;;;;;5040112;28;20490;-79
2023/07/26 07:43:30;;;;;;;11.30;10.40;;;14.80;96.40;;;;;;5022646;28;20476;-78
2023/07/26 07:45:58;;;;;;;12.27;11.20;;;14.90;96.40;;;;;;5040339;28;20437;-76
2023/07/26 07:48:26;;;;;;;13.80;12.40;;;14.80;96.60;;;;;;5040196;28;20689;-79
2023/07/26 07:50:54;;;;;;;12.17;11.10;;;14.80;96.00;;;;;;5040499;28;20553;-79
2023/07/26 07:53:23;;;;;;;12.33;11.40;;;14.90;96.10;;;;;;5023087;28;20424;-77
2023/07/26 07:55:51;;;;;;;12.83;11.60;;;14.90;96.20;;;;;;5040573;28;20472;-80
2023/07/26 07:58:20;;;;;;;11.80;10.80;;;15.10;96.10;;;;;;5023278;28;20793;-77
2023/07/26 08:00:47;;;;;;;13.50;12.50;;;15.00;96.40;;;;;;5039885;28;20434;-80
2023/07/26 08:03:15;;;;;;;12.13;11.07;;;15.20;96.30;;;;;;5040200;28;20516;-79
2023/07/26 08:05:42;;;;;;;11.07;10.17;;;15.10;95.10;;;;;;5038994;28;20408;-78
2023/07/26 08:08:09;;;;;;;11.73;10.70;;;15.20;95.40;;;;;;5038893;28;20592;-78
2023/07/26 08:10:39;;;;;;;11.93;11.07;;;15.20;96.10;;;;;;5040243;28;20441;-76
2023/07/26 08:13:06;;;;;;;13.30;11.73;;;15.30;95.70;;;;;;5040388;28;20440;-77
2023/07/26 08:15:37;;;;;;;12.30;11.27;;;15.40;95.10;;;;;;5022895;28;20465;-77
2023/07/26 08:18:05;;;;;;;11.97;10.97;;;15.60;95.30;;;;;;5024228;28;20412;-78
2023/07/26 08:20:36;;;;;;;11.00;10.10;;;15.70;95.00;;;;;;5042826;28;20507;-78
2023/07/26 08:23:04;;;;;;;11.13;10.10;;;15.60;94.50;;;;;;5040327;28;20501;-79
2023/07/26 08:25:32;;;;;;;10.30;9.47;;;15.40;93.90;;;;;;5039884;28;20442;-78
2023/07/26 08:27:59;;;;;;;11.93;11.10;;;15.40;94.30;;;;;;5039588;28;20505;-77
2023/07/26 08:30:27;;;;;;;10.90;10.10;;;15.50;94.50;;;;;;5041036;28;20441;-79
2023/07/26 08:32:54;;;;;;;11.73;10.80;;;15.50;93.40;;;;;;5026586;28;20441;-77
2023/07/26 08:35:22;;;;;;;12.27;11.27;;;15.40;94.00;;;;;;5043340;28;20444;-76
2023/07/26 08:37:49;;;;;;;13.13;11.93;;;15.40;94.30;;;;;;5043435;28;20473;-76
2023/07/26 08:40:17;;;;;;;13.13;11.87;;;15.60;94.10;;;;;;5043533;28;20508;-77
2023/07/26 08:42:45;;;;;;;11.97;11.03;;;15.60;93.90;;;;;;5043222;28;20637;-77
2023/07/26 08:45:12;;;;;;;13.53;11.30;;;15.70;94.10;;;;;;5026053;28;20501;-77
2023/07/26 08:47:41;;;;;;;12.20;11.03;;;15.90;93.50;;;;;;5042250;28;20468;-77
2023/07/26 08:50:08;;;;;;;12.33;11.17;;;16.00;93.00;;;;;;5026271;28;20442;-75
2023/07/26 08:52:36;;;;;;;11.27;10.20;;;16.10;93.40;;;;;;5043601;28;20440;-78
2023/07/26 08:55:03;;;;;;;10.30;9.43;;;16.00;92.80;;;;;;5043577;28;20622;-77
2023/07/26 08:57:30;;;;;;;10.20;9.43;;;16.10;92.60;;;;;;5043391;28;20631;-76
2023/07/26 08:59:57;;;;;;;10.90;9.93;;;15.90;93.10;;;;;;5043259;28;20441;-75
2023/07/26 09:02:27;;;;;;;10.23;9.27;;;16.00;93.50;;;;;;5043073;28;20461;-75
2023/07/26 09:04:56;;;;;;;10.47;9.33;;;16.10;92.90;;;;;;5043335;28;20629;-75
2023/07/26 09:07:23;;;;;;;11.37;10.30;;;16.10;92.70;;;;;;5043525;28;20453;-77
2023/07/26 09:09:50;;;;;;;12.07;10.17;;;16.30;92.80;;;;;;5025680;28;20480;-77
2023/07/26 09:12:28;;;;;;;9.70;8.90;;;16.60;92.10;;;;;;5042737;28;20622;-77
2023/07/26 09:14:59;;;;;;;13.43;10.77;;;16.70;92.10;;;;;;5042779;28;20440;-75
2023/07/26 09:17:37;;;;;;;9.30;7.93;;;17.00;91.90;;;;;;5042715;28;20434;-76
2023/07/26 09:20:17;;;;;;;8.87;7.97;;;17.20;90.30;;;;;;5042625;28;20629;-77
2023/07/26 09:22:45;;;;;;;7.77;7.07;;;17.40;89.30;;;;;;5025750;28;20404;-76
2023/07/26 09:25:12;;;;;;;8.30;7.23;;;17.50;88.30;;;;;;5042948;28;20521;-76
2023/07/26 09:27:52;;;;;;;8.43;7.63;;;17.70;85.70;;;;;;5042905;28;20490;-75
2023/07/26 09:30:20;;;;;;;8.23;7.53;;;17.70;86.10;;;;;;5042610;28;20708;-76
2023/07/26 09:32:48;;;;;;;7.07;6.47;;;18.10;82.70;;;;;;5042580;28;20488;-75
2023/07/26 09:35:15;;;;;;;7.40;6.80;;;18.00;83.40;;;;;;5042555;28;20404;-75
2023/07/26 09:37:42;;;;;;;7.30;6.60;;;17.80;83.40;;;;;;5042454;28;20512;-75
2023/07/26 09:40:10;;;;;;;7.97;6.97;;;17.50;84.40;;;;;;5042488;28;20510;-76
2023/07/26 09:42:47;;;;;;;8.50;7.80;;;17.20;87.00;;;;;;5041380;28;20411;-77
2023/07/26 09:45:21;;;;;;;8.83;7.83;;;17.10;88.70;;;;;;5042799;28;20589;-77
2023/07/26 09:47:48;;;;;;;7.60;6.70;;;16.90;89.60;;;;;;5025151;28;20455;-76
2023/07/26 09:50:29;;;;;;;10.23;6.77;;;16.70;89.70;;;;;;5042537;28;20418;-75
2023/07/26 09:53:02;;;;;;;7.70;6.90;;;16.80;89.70;;;;;;5042873;28;20481;-76
2023/07/26 09:55:29;;;;;;;9.73;6.77;;;17.10;90.20;;;;;;5027065;28;20790;-76
2023/07/26 09:58:00;;;;;;;7.53;6.70;;;17.50;87.00;;;;;;5042800;28;20438;-76
2023/07/26 10:00:28;;;;;;;9.07;6.23;;;17.90;85.50;;;;;;5041801;28;20691;-75
2023/07/26 10:03:03;;;;;;;6.17;5.70;;;18.20;83.90;;;;;;5041734;28;20441;-79
2023/07/26 10:05:51;;;;;;;7.57;5.47;;;18.50;81.70;;;;;;5024794;28;20403;-76
2023/07/26 10:08:23;;;;;;;6.13;4.40;;;18.70;81.10;;;;;;5040829;28;20389;-76
2023/07/26 10:10:52;;;;;;;6.27;4.90;;;18.30;78.10;;;;;;5024376;28;20408;-76
2023/07/26 10:13:20;;;;;;;5.60;4.13;;;17.90;81.70;;;;;;5041795;28;20441;-75
2023/07/26 10:15:50;;;;;;;4.23;3.67;;;17.50;80.60;;;;;;5042287;28;20441;-76
2023/07/26 10:18:19;;;;;;;4.77;3.77;;;17.40;83.30;;;;;;5024435;28;20438;-76
2023/07/26 10:20:48;;;;;;;3.90;3.60;;;17.70;83.20;;;;;;5041355;28;20442;-77
2023/07/26 10:23:15;;;;;;;4.97;3.70;;;18.00;81.80;;;;;;5041412;28;20848;-78
2023/07/26 10:25:43;;;;;;;5.13;3.50;;;18.40;77.50;;;;;;5040361;28;20450;-78
2023/07/26 10:28:11;;;;;;;6.50;4.50;;;18.50;78.40;;;;;;5042491;28;20464;-76
2023/07/26 10:30:38;;;;;;;4.83;3.97;;;18.50;80.30;;;;;;5042675;28;20507;-77
2023/07/26 10:33:13;;;;;;;4.87;3.30;;;18.30;77.70;;;;;;5041331;28;20465;-76
2023/07/26 10:35:43;;;;;;;5.17;3.33;;;18.20;73.80;;;;;;5041764;28;20445;-80
2023/07/26 10:38:13;;;;;;;3.00;2.73;;;18.60;75.20;;;;;;5041339;28;20437;-76
2023/07/26 10:40:40;;;;;;;4.10;2.80;;;18.90;72.70;;;;;;5024219;28;20476;-76
2023/07/26 10:43:20;;;;;;;4.07;3.33;;;19.30;66.30;;;;;;5041882;28;20446;-77
2023/07/26 10:45:49;;;;;;;5.07;3.23;;;19.30;66.40;;;;;;5041577;28;20457;-77
2023/07/26 10:48:26;;;;;;;4.10;2.37;;;19.20;66.80;;;;;;5041536;28;20735;-77
2023/07/26 10:51:20;;;;;;;6.33;2.90;;;19.50;66.80;;;;;;5041044;28;20454;-78
2023/07/26 10:53:46;;;;;;;7.40;3.50;;;19.60;65.80;;;;;;5040735;28;20525;-75
2023/07/26 10:56:24;;;;;;;6.53;3.90;;;20.00;67.10;;;;;;5041002;28;20483;-76
2023/07/26 10:58:55;;;;;;;4.50;3.10;;;20.20;60.90;;;;;;5041013;28;20993;-76
2023/07/26 11:01:49;;;;;;;3.80;2.70;;;19.90;61.50;;;;;;5044035;28;20397;-78
2023/07/26 11:04:31;;;;;;;3.67;2.63;;;19.40;65.10;;;;;;5040523;28;20524;-78
2023/07/26 11:07:00;;;;;;;3.53;2.77;;;19.30;65.90;;;;;;5042707;28;20412;-75
2023/07/26 11:09:29;;;;;;;3.90;2.90;;;19.30;65.70;;;;;;5024014;28;20476;-78
2023/07/26 11:12:02;;;;;;;3.47;2.73;;;19.60;67.50;;;;;;5041784;28;20425;-76
2023/07/26 11:14:33;;;;;;;4.33;3.07;;;19.90;64.00;;;;;;5040885;28;20444;-77
2023/07/26 11:17:13;;;;;;;5.93;3.43;;;19.90;64.20;;;;;;5023873;28;20477;-77
2023/07/26 11:19:48;;;;;;;6.00;3.33;;;20.10;64.50;;;;;;5040722;28;20456;-76
2023/07/26 11:22:18;;;;;;;4.57;4.17;;;20.40;63.60;;;;;;5040609;28;20508;-77
2023/07/26 11:24:46;;;;;;;3.80;2.90;;;20.40;63.00;;;;;;5039270;28;20551;-77
2023/07/26 11:27:13;;;;;;;4.47;2.87;;;20.60;61.50;;;;;;5040709;28;20438;-76
2023/07/26 11:29:41;;;;;;;3.03;2.70;;;20.40;60.40;;;;;;5022805;28;20440;-77
2023/07/26 11:32:07;;;;;;;5.87;3.47;;;20.20;60.40;;;;;;5040712;28;20472;-77
2023/07/26 11:34:34;;;;;;;4.60;2.90;;;20.60;62.90;;;;;;5038896;28;20680;-77
2023/07/26 11:37:07;;;;;;;5.43;3.10;;;20.60;61.30;;;;;;5022829;28;20442;-76
2023/07/26 11:39:35;;;;;;;3.37;3.07;;;20.60;59.80;;;;;;5040230;28;20474;-76
2023/07/26 11:42:02;;;;;;;6.53;3.30;;;20.00;60.50;;;;;;5040024;28;20420;-77
2023/07/26 11:44:29;;;;;;;6.63;3.50;;;19.90;61.10;;;;;;5040482;28;20443;-78
2023/07/26 11:47:00;;;;;;;3.30;2.57;;;20.30;61.30;;;;;;5040650;28;20441;-76
2023/07/26 11:49:28;;;;;;;5.10;2.30;;;20.50;59.30;;;;;;5041065;28;20749;-78
2023/07/26 11:51:55;;;;;;;2.80;2.40;;;20.40;58.40;;;;;;5040506;28;20496;-76
2023/07/26 11:54:23;;;;;;;5.30;2.70;;;20.00;58.40;;;;;;5023533;28;20443;-78
2023/07/26 11:56:50;;;;;;;7.67;2.60;;;19.80;59.80;;;;;;5041035;28;20408;-77
2023/07/26 11:59:18;;;;;;;4.43;2.57;;;19.80;59.00;;;;;;5040201;28;20757;-77
2023/07/26 12:01:47;;;;;;;2.80;2.50;;;19.90;58.80;;;;;;5040861;28;20616;-78
2023/07/26 12:04:16;;;;;;;4.33;2.80;;;19.90;59.40;;;;;;5023311;28;20444;-78
2023/07/26 12:06:48;;;;;;;4.23;2.30;;;20.20;59.30;;;;;;5026332;28;20461;-78
2023/07/26 12:09:15;;;;;;;5.13;2.87;;;20.30;59.40;;;;;;5043499;28;20441;-76
2023/07/26 12:11:51;;;;;;;5.20;2.90;;;20.20;59.10;;;;;;5043178;28;20459;-77
2023/07/26 12:14:22;;;;;;;4.10;2.30;;;20.10;58.00;;;;;;5043319;28;20462;-76
2023/07/26 12:16:51;;;;;;;3.77;2.47;;;20.10;58.70;;;;;;5044082;28;20475;-76
2023/07/26 12:19:25;;;;;;;4.10;2.27;;;19.80;58.00;;;;;;5044360;28;20487;-79
2023/07/26 12:21:53;;;;;;;2.80;2.60;;;19.60;59.20;;;;;;5044439;28;20404;-76
2023/07/26 12:24:20;;;;;;;3.40;3.13;;;19.50;59.50;;;;;;5044433;28;20869;-79
2023/07/26 12:26:48;;;;;;;4.30;2.70;;;19.10;60.90;;;;;;5027157;28;20519;-77
2023/07/26 12:29:16;;;;;;;2.43;2.23;;;18.80;59.50;;;;;;5045213;28;20456;-76
2023/07/26 12:31:43;;;;;;;5.67;3.23;;;18.70;59.30;;;;;;5044019;28;20465;-76
2023/07/26 12:34:12;;;;;;;4.60;2.10;;;18.60;59.70;;;;;;5025926;28;20437;-76
2023/07/26 12:36:45;;;;;;;5.27;2.23;;;18.90;59.80;;;;;;5026743;28;20435;-78
2023/07/26 12:39:14;;;;;;;2.97;1.90;;;18.90;58.80;;;;;;5043820;28;20459;-78
2023/07/26 12:41:43;;;;;;;2.50;1.90;;;18.90;57.60;;;;;;5043387;28;20484;-76
2023/07/26 12:44:14;;;;;;;5.07;2.33;;;18.70;57.60;;;;;;5025952;28;20455;-76